ISO weather

Kinston Regional Jetport At Stallings Field
Kinston, North Carolina, United States

Public forecast

Using degrees Fahrenheit for public forecast. Weather courtesy of forecast.io.

METAR (pilot weather report)

Retrieved 2019/06/27 05:40 UTC (0 seconds ago):

KISO 270540Z AUTO 00000KT 10SM CLR 21/20 A3013 RMK AO2 T02130196

TAF (pilot weather forecast)

Forecast is more than 12 hours old.

Retrieved 2019/06/26 00:22 UTC (1 day ago):

TAF KISO 262320Z 2700/2724 VRB03KT P6SM SCT060 BKN200 FM271200 VRB04KT P6SM SCT060 AMD LTD TO CLD VIS AND WIND